createdAt,value
2023-04-21T00:01:27.701Z,3.10
2023-04-21T00:03:55.505Z,2.70
2023-04-21T00:06:23.296Z,2.80
2023-04-21T00:08:50.798Z,3.35
2023-04-21T00:11:18.137Z,3.17
2023-04-21T00:13:45.056Z,2.97
2023-04-21T00:16:11.961Z,3.03
2023-04-21T00:18:38.758Z,3.08
2023-04-21T00:21:06.198Z,3.22
2023-04-21T00:23:33.058Z,4.55
2023-04-21T00:26:02.609Z,3.03
2023-04-21T00:28:29.680Z,3.35
2023-04-21T00:30:57.835Z,2.80
2023-04-21T00:33:26.032Z,2.70
2023-04-21T00:35:56.765Z,3.00
2023-04-21T00:38:23.437Z,2.58
2023-04-21T00:40:50.151Z,3.15
2023-04-21T00:43:16.937Z,2.85
2023-04-21T00:45:47.094Z,3.60
2023-04-21T00:48:14.005Z,3.22
2023-04-21T00:50:41.253Z,4.28
2023-04-21T00:53:09.041Z,2.65
2023-04-21T00:55:35.978Z,3.13
2023-04-21T00:58:03.672Z,3.75
2023-04-21T01:00:30.652Z,3.35
2023-04-21T01:02:59.915Z,3.70
2023-04-21T01:05:27.212Z,3.30
2023-04-21T01:07:53.969Z,2.92
2023-04-21T01:10:23.187Z,3.13
2023-04-21T01:12:51.494Z,3.90
2023-04-21T01:15:18.928Z,3.17
2023-04-21T01:17:46.512Z,3.53
2023-04-21T01:20:14.848Z,3.28
2023-04-21T01:22:42.594Z,4.05
2023-04-21T01:25:09.993Z,3.45
2023-04-21T01:27:37.098Z,4.05
2023-04-21T01:30:05.760Z,3.55
2023-04-21T01:32:32.743Z,4.43
2023-04-21T01:35:00.543Z,3.88
2023-04-21T01:37:30.333Z,4.18
2023-04-21T01:40:00.590Z,3.78
2023-04-21T01:42:29.087Z,4.07
2023-04-21T01:44:58.289Z,4.18
2023-04-21T01:47:25.461Z,3.60
2023-04-21T01:49:52.524Z,4.47
2023-04-21T01:52:19.759Z,4.25
2023-04-21T01:54:46.898Z,4.30
2023-04-21T01:57:14.610Z,4.68
2023-04-21T01:59:41.470Z,5.07
2023-04-21T02:02:08.495Z,4.30
2023-04-21T02:04:36.179Z,4.03
2023-04-21T02:07:03.224Z,3.58
2023-04-21T02:09:30.078Z,4.22
2023-04-21T02:11:57.276Z,4.15
2023-04-21T02:14:25.909Z,4.78
2023-04-21T02:16:53.171Z,4.45
2023-04-21T02:19:20.468Z,4.20
2023-04-21T02:21:47.521Z,4.47
2023-04-21T02:24:14.279Z,4.45
2023-04-21T02:26:41.006Z,3.78
2023-04-21T02:29:07.881Z,3.72
2023-04-21T02:31:53.727Z,4.32
2023-04-21T02:34:24.405Z,4.38
2023-04-21T02:36:51.235Z,4.15
2023-04-21T02:39:19.656Z,4.40
2023-04-21T02:41:46.638Z,4.22
2023-04-21T02:44:13.360Z,4.07
2023-04-21T02:46:41.527Z,5.03
2023-04-21T02:49:08.830Z,5.05
2023-04-21T02:51:35.684Z,4.70
2023-04-21T02:54:03.063Z,4.30
2023-04-21T02:56:29.835Z,3.85
2023-04-21T02:58:56.561Z,4.38
2023-04-21T03:01:23.362Z,4.72
2023-04-21T03:03:50.152Z,5.45
2023-04-21T03:06:16.994Z,4.55
2023-04-21T03:08:45.824Z,4.55
2023-04-21T03:11:12.615Z,4.20
2023-04-21T03:13:39.314Z,4.80
2023-04-21T03:16:06.405Z,4.63
2023-04-21T03:18:36.122Z,5.25
2023-04-21T03:21:02.886Z,4.68
2023-04-21T03:23:29.680Z,4.65
2023-04-21T03:25:56.815Z,4.32
2023-04-21T03:28:23.591Z,4.93
2023-04-21T03:30:51.734Z,4.82
2023-04-21T03:33:18.430Z,4.45
2023-04-21T03:35:45.110Z,4.90
2023-04-21T03:38:11.860Z,4.00
2023-04-21T03:40:38.642Z,5.05
2023-04-21T03:43:06.002Z,4.30
2023-04-21T03:45:35.939Z,4.25
2023-04-21T03:48:03.629Z,4.47
2023-04-21T03:50:30.567Z,4.35
2023-04-21T03:52:57.374Z,4.85
2023-04-21T03:55:24.124Z,4.82
2023-04-21T03:57:50.904Z,4.28
2023-04-21T04:00:17.949Z,4.30
2023-04-21T04:02:45.797Z,5.68
2023-04-21T04:05:12.787Z,4.60
2023-04-21T04:07:39.637Z,4.95
2023-04-21T04:10:06.731Z,4.63
2023-04-21T04:12:33.436Z,4.00
2023-04-21T04:15:00.319Z,4.43
2023-04-21T04:17:27.145Z,5.18
2023-04-21T04:19:53.811Z,4.65
2023-04-21T04:22:20.944Z,4.72
2023-04-21T04:24:47.898Z,4.47
2023-04-21T04:27:14.720Z,4.82
2023-04-21T04:29:41.544Z,4.80
2023-04-21T04:32:11.132Z,4.65
2023-04-21T04:34:38.460Z,4.80
2023-04-21T04:37:06.496Z,4.65
2023-04-21T04:39:33.353Z,4.70
2023-04-21T04:42:01.193Z,4.22
2023-04-21T04:44:28.083Z,4.75
2023-04-21T04:46:55.070Z,3.90
2023-04-21T04:49:23.941Z,4.60
2023-04-21T04:51:51.035Z,5.38
2023-04-21T04:54:18.022Z,4.30
2023-04-21T04:56:44.955Z,4.18
2023-04-21T04:59:12.290Z,4.40
2023-04-21T05:01:40.541Z,5.35
2023-04-21T05:04:07.539Z,4.43
2023-04-21T05:06:34.308Z,4.10
2023-04-21T05:09:01.028Z,4.25
2023-04-21T05:11:27.785Z,4.38
2023-04-21T05:13:54.551Z,4.32
2023-04-21T05:16:21.271Z,4.25
2023-04-21T05:18:50.954Z,3.38
2023-04-21T05:21:29.044Z,4.38
2023-04-21T05:23:56.465Z,3.85
2023-04-21T05:26:23.962Z,3.47
2023-04-21T05:28:51.022Z,3.75
2023-04-21T05:31:17.728Z,4.78
2023-04-21T05:33:44.508Z,3.95
2023-04-21T05:36:11.514Z,4.28
2023-04-21T05:38:38.511Z,3.78
2023-04-21T05:41:05.739Z,4.20
2023-04-21T05:43:33.457Z,4.00
2023-04-21T05:46:08.820Z,4.43
2023-04-21T05:48:36.076Z,4.32
2023-04-21T05:51:11.426Z,3.28
2023-04-21T05:53:39.317Z,4.30
2023-04-21T05:56:08.262Z,4.05
2023-04-21T05:58:35.910Z,4.13
2023-04-21T06:01:02.674Z,4.28
2023-04-21T06:03:32.891Z,3.80
2023-04-21T06:06:01.112Z,3.65
2023-04-21T06:08:27.929Z,4.05
2023-04-21T06:10:54.790Z,4.03
2023-04-21T06:13:21.540Z,4.07
2023-04-21T06:15:48.327Z,4.30
2023-04-21T06:18:16.060Z,3.22
2023-04-21T06:20:42.934Z,3.22
2023-04-21T06:23:09.658Z,3.42
2023-04-21T06:25:36.399Z,4.20
2023-04-21T06:28:03.152Z,4.40
2023-04-21T06:30:29.892Z,3.80
2023-04-21T06:32:56.603Z,4.03
2023-04-21T06:35:23.473Z,4.25
2023-04-21T06:37:50.193Z,4.57
2023-04-21T06:40:17.039Z,4.18
2023-04-21T06:42:43.736Z,4.15
2023-04-21T06:45:10.843Z,4.20
2023-04-21T06:47:37.687Z,4.18
2023-04-21T06:50:06.359Z,4.32
2023-04-21T06:52:33.020Z,4.75
2023-04-21T06:54:59.754Z,4.28
2023-04-21T06:57:26.500Z,5.03
2023-04-21T06:59:53.455Z,4.68
2023-04-21T07:02:20.280Z,4.30
2023-04-21T07:04:47.171Z,4.03
2023-04-21T07:07:14.364Z,5.05
2023-04-21T07:09:41.176Z,3.85
2023-04-21T07:12:07.941Z,3.90
2023-04-21T07:14:34.665Z,3.78
2023-04-21T07:17:01.490Z,4.38
2023-04-21T07:19:28.293Z,4.57
2023-04-21T07:21:55.004Z,4.35
2023-04-21T07:24:21.755Z,4.20
2023-04-21T07:26:48.440Z,4.82
2023-04-21T07:29:15.169Z,4.38
2023-04-21T07:31:42.048Z,4.47
2023-04-21T07:34:08.815Z,5.50
2023-04-21T07:36:38.717Z,4.65
2023-04-21T07:39:06.293Z,4.35
2023-04-21T07:41:47.337Z,4.28
2023-04-21T07:44:14.079Z,4.07
2023-04-21T07:46:41.323Z,4.38
2023-04-21T07:49:08.427Z,4.65
2023-04-21T07:51:35.249Z,3.97
2023-04-21T07:54:02.032Z,4.65
2023-04-21T07:56:28.838Z,4.22
2023-04-21T07:58:55.714Z,4.78
2023-04-21T08:01:23.650Z,4.30
2023-04-21T08:03:50.559Z,4.38
2023-04-21T08:06:17.677Z,4.60
2023-04-21T08:08:44.585Z,4.28
2023-04-21T08:11:11.293Z,4.20
2023-04-21T08:13:38.027Z,4.35
2023-04-21T08:16:05.035Z,4.20
2023-04-21T08:18:31.817Z,4.22
2023-04-21T08:20:58.551Z,4.07
2023-04-21T08:23:25.395Z,4.25
2023-04-21T08:25:52.111Z,4.20
2023-04-21T08:28:18.845Z,4.05
2023-04-21T08:30:45.562Z,4.10
2023-04-21T08:33:14.000Z,4.25
2023-04-21T08:35:54.903Z,4.05
2023-04-21T08:38:28.229Z,4.90
2023-04-21T08:40:57.904Z,4.43
2023-04-21T08:43:24.612Z,4.50
2023-04-21T08:45:54.318Z,4.55
2023-04-21T08:48:23.645Z,4.03
2023-04-21T08:50:51.475Z,4.35
2023-04-21T08:53:18.200Z,4.22
2023-04-21T08:55:51.294Z,5.47
2023-04-21T08:58:26.580Z,3.60
2023-04-21T09:00:53.364Z,4.18
2023-04-21T09:03:26.309Z,3.90
2023-04-21T09:06:08.540Z,3.55
2023-04-21T09:08:53.751Z,4.20
2023-04-21T09:11:26.388Z,3.88
2023-04-21T09:13:57.660Z,4.15
2023-04-21T09:16:24.407Z,3.90
2023-04-21T09:18:51.356Z,4.18
2023-04-21T09:21:19.696Z,5.05
2023-04-21T09:23:51.620Z,4.32
2023-04-21T09:26:20.216Z,4.55
2023-04-21T09:28:49.820Z,4.80
2023-04-21T09:31:21.401Z,4.15
2023-04-21T09:36:24.985Z,3.90
2023-04-21T09:39:03.756Z,3.85
2023-04-21T09:41:41.644Z,3.35
2023-04-21T09:44:08.431Z,4.75
2023-04-21T09:46:38.055Z,3.83
2023-04-21T09:49:06.490Z,4.07
2023-04-21T09:51:52.757Z,4.03
2023-04-21T09:56:56.323Z,3.92
2023-04-21T09:59:30.365Z,4.63
2023-04-21T10:01:59.677Z,4.22
2023-04-21T10:04:29.139Z,4.63
2023-04-21T10:06:56.390Z,3.97
2023-04-21T10:09:25.359Z,4.50
2023-04-21T10:11:53.459Z,3.75
2023-04-21T10:14:20.652Z,4.15
2023-04-21T10:16:57.216Z,4.47
2023-04-21T10:19:26.253Z,3.67
2023-04-21T10:21:56.536Z,4.20
2023-04-21T10:24:23.739Z,4.22
2023-04-21T10:26:53.367Z,4.22
2023-04-21T10:29:47.857Z,4.13
2023-04-21T10:32:51.500Z,4.45
2023-04-21T10:35:24.438Z,4.00
2023-04-21T10:37:52.045Z,3.65
2023-04-21T10:40:43.144Z,3.78
2023-04-21T10:43:42.869Z,4.28
2023-04-21T10:46:37.045Z,4.35
2023-04-21T10:49:10.482Z,4.57
2023-04-21T10:52:08.113Z,4.05
2023-04-21T10:54:45.093Z,4.03
2023-04-21T10:57:19.534Z,4.97
2023-04-21T10:59:47.827Z,4.30
2023-04-21T11:02:16.980Z,4.50
2023-04-21T11:04:49.997Z,3.80
2023-04-21T11:07:21.580Z,4.05
2023-04-21T11:09:56.394Z,4.65
2023-04-21T11:12:31.080Z,3.92
2023-04-21T11:14:57.858Z,4.43
2023-04-21T11:17:25.144Z,4.63
2023-04-21T11:19:56.461Z,4.85
2023-04-21T11:22:24.856Z,4.43
2023-04-21T11:24:54.856Z,4.47
2023-04-21T11:27:24.815Z,4.95
2023-04-21T11:29:51.690Z,4.28
2023-04-21T11:32:19.247Z,4.88
2023-04-21T11:34:46.199Z,4.80
2023-04-21T11:37:23.403Z,4.18
2023-04-21T11:39:50.276Z,4.82
2023-04-21T11:42:23.208Z,3.90
2023-04-21T11:44:50.028Z,4.75
2023-04-21T11:47:19.251Z,4.13
2023-04-21T11:49:57.374Z,4.38
2023-04-21T11:52:43.389Z,4.38
2023-04-21T11:55:19.856Z,4.00
2023-04-21T11:57:46.686Z,4.53
2023-04-21T12:00:14.542Z,4.30
2023-04-21T12:02:42.707Z,4.95
2023-04-21T12:05:12.003Z,4.43
2023-04-21T12:07:48.417Z,4.15
2023-04-21T12:10:19.159Z,4.07
2023-04-21T12:12:46.633Z,5.00
2023-04-21T12:15:19.840Z,4.90
2023-04-21T12:17:51.347Z,4.63
2023-04-21T12:20:20.473Z,4.43
2023-04-21T12:22:49.343Z,4.80
2023-04-21T12:25:16.412Z,4.22
2023-04-21T12:27:49.342Z,3.55
2023-04-21T12:30:16.472Z,4.22
2023-04-21T12:32:43.588Z,4.82
2023-04-21T12:35:11.283Z,4.28
2023-04-21T12:37:37.932Z,5.00
2023-04-21T12:40:05.711Z,6.25
2023-04-21T12:42:33.810Z,4.18
2023-04-21T12:45:01.585Z,4.05
2023-04-21T12:47:28.442Z,4.68
2023-04-21T12:49:55.252Z,4.28
2023-04-21T12:52:22.077Z,4.07
2023-04-21T12:54:48.778Z,4.72
2023-04-21T12:57:15.901Z,3.92
2023-04-21T12:59:44.739Z,5.05
2023-04-21T13:02:12.959Z,4.30
2023-04-21T13:04:41.979Z,4.95
2023-04-21T13:07:08.991Z,4.13
2023-04-21T13:09:35.826Z,4.38
2023-04-21T13:12:02.838Z,4.25
2023-04-21T13:14:30.058Z,4.82
2023-04-21T13:16:56.808Z,5.35
2023-04-21T13:19:23.689Z,4.53
2023-04-21T13:21:52.707Z,4.32
2023-04-21T13:24:20.982Z,4.45
2023-04-21T13:26:47.692Z,4.47
2023-04-21T13:29:14.448Z,4.28
2023-04-21T13:31:41.314Z,4.60
2023-04-21T13:34:08.093Z,4.20
2023-04-21T13:36:35.167Z,4.20
2023-04-21T13:39:02.034Z,4.25
2023-04-21T13:41:28.930Z,4.88
2023-04-21T13:43:56.000Z,4.22
2023-04-21T13:46:23.003Z,4.18
2023-04-21T13:48:51.566Z,3.97
2023-04-21T13:51:19.345Z,5.20
2023-04-21T13:53:46.623Z,4.45
2023-04-21T13:56:14.016Z,5.10
2023-04-21T13:58:41.776Z,7.90
2023-04-21T14:01:08.742Z,8.10
2023-04-21T14:03:35.985Z,8.30
2023-04-21T14:06:02.980Z,7.07
2023-04-21T14:08:29.814Z,6.40
2023-04-21T14:10:57.577Z,5.32
2023-04-21T14:16:00.434Z,5.53
2023-04-21T14:18:27.277Z,6.35
2023-04-21T14:20:53.935Z,5.05
2023-04-21T14:23:20.671Z,4.88
2023-04-21T14:25:47.429Z,5.47
2023-04-21T14:28:14.855Z,4.97
2023-04-21T14:30:42.966Z,5.47
2023-04-21T14:33:10.021Z,6.05
2023-04-21T14:35:39.880Z,5.72
2023-04-21T14:38:06.551Z,4.85
2023-04-21T14:40:33.291Z,5.10
2023-04-21T14:43:00.026Z,5.63
2023-04-21T14:45:26.832Z,5.32
2023-04-21T14:47:53.830Z,4.60
2023-04-21T14:50:21.864Z,5.45
2023-04-21T14:52:49.571Z,7.15
2023-04-21T14:55:17.140Z,8.05
2023-04-21T14:57:44.129Z,9.10
2023-04-21T15:00:11.498Z,9.45
2023-04-21T15:02:39.476Z,8.90
2023-04-21T15:05:08.519Z,10.77
2023-04-21T15:07:35.958Z,10.75
2023-04-21T15:10:03.052Z,9.95
2023-04-21T15:12:29.936Z,10.02
2023-04-21T15:14:56.713Z,8.80
2023-04-21T15:17:23.565Z,8.43
2023-04-21T15:19:50.438Z,8.98
2023-04-21T15:22:17.261Z,9.95
2023-04-21T15:24:44.052Z,6.90
2023-04-21T15:27:10.778Z,6.78
2023-04-21T15:29:37.809Z,8.15
2023-04-21T15:32:04.799Z,7.57
2023-04-21T15:34:31.710Z,6.32
2023-04-21T15:36:58.616Z,5.93
2023-04-21T15:39:25.381Z,6.10
2023-04-21T15:41:53.286Z,5.90
2023-04-21T15:44:20.050Z,5.47
2023-04-21T15:46:47.018Z,5.53
2023-04-21T15:49:13.855Z,6.15
2023-04-21T15:51:41.104Z,5.50
2023-04-21T15:54:07.869Z,5.07
2023-04-21T15:56:34.582Z,4.90
2023-04-21T15:59:01.375Z,5.10
2023-04-21T16:01:28.423Z,5.82
2023-04-21T16:03:55.734Z,5.18
2023-04-21T16:06:24.041Z,5.63
2023-04-21T16:08:51.090Z,5.53
2023-04-21T16:11:17.893Z,5.05
2023-04-21T16:13:44.629Z,5.25
2023-04-21T16:16:11.533Z,5.47
2023-04-21T16:18:38.329Z,5.72
2023-04-21T16:21:05.218Z,4.70
2023-04-21T16:23:32.109Z,5.32
2023-04-21T16:25:59.017Z,5.75
2023-04-21T16:28:25.791Z,5.15
2023-04-21T16:30:52.498Z,5.28
2023-04-21T16:33:19.180Z,5.38
2023-04-21T16:35:46.023Z,5.43
2023-04-21T16:38:13.040Z,5.05
2023-04-21T16:40:39.833Z,5.20
2023-04-21T16:43:06.464Z,4.70
2023-04-21T16:45:33.268Z,5.57
2023-04-21T16:48:00.167Z,3.83
2023-04-21T16:50:27.296Z,4.90
2023-04-21T16:52:54.197Z,4.20
2023-04-21T16:55:20.992Z,4.43
2023-04-21T16:57:48.283Z,3.78
2023-04-21T17:00:15.338Z,3.90
2023-04-21T17:02:42.198Z,4.63
2023-04-21T17:05:09.724Z,5.00
2023-04-21T17:07:36.861Z,3.75
2023-04-21T17:10:03.791Z,4.50
2023-04-21T17:12:30.665Z,3.85
2023-04-21T17:14:57.336Z,5.47
2023-04-21T17:17:24.326Z,3.75
2023-04-21T17:19:53.711Z,4.88
2023-04-21T17:22:20.690Z,3.83
2023-04-21T17:24:53.127Z,3.83
2023-04-21T17:29:48.124Z,4.20
2023-04-21T17:32:14.915Z,4.45
2023-04-21T17:34:41.698Z,3.45
2023-04-21T17:37:08.970Z,4.85
2023-04-21T17:40:18.977Z,3.90
2023-04-21T17:42:45.742Z,3.65
2023-04-21T17:45:12.386Z,4.63
2023-04-21T17:47:39.134Z,4.07
2023-04-21T17:50:06.472Z,4.00
2023-04-21T17:52:33.213Z,3.80
2023-04-21T17:54:59.968Z,4.20
2023-04-21T17:57:26.816Z,4.15
2023-04-21T17:59:53.524Z,4.15
2023-04-21T18:02:20.346Z,3.90
2023-04-21T18:04:47.205Z,3.80
2023-04-21T18:07:17.605Z,4.82
2023-04-21T18:09:48.644Z,4.05
2023-04-21T18:12:16.083Z,3.05
2023-04-21T18:14:42.838Z,3.50
2023-04-21T18:17:09.631Z,3.42
2023-04-21T18:19:56.400Z,4.18
2023-04-21T18:22:26.752Z,3.72
2023-04-21T18:25:03.045Z,3.58
2023-04-21T18:27:33.029Z,3.33
2023-04-21T18:30:03.184Z,3.50
2023-04-21T18:32:32.682Z,3.45
2023-04-21T18:35:00.793Z,3.17
2023-04-21T18:37:31.821Z,2.72
2023-04-21T18:40:07.124Z,2.92
2023-04-21T18:42:33.975Z,3.10
2023-04-21T18:45:03.695Z,2.85
2023-04-21T18:47:31.187Z,3.22
2023-04-21T18:49:58.289Z,3.28
2023-04-21T18:52:25.083Z,3.17
2023-04-21T18:54:51.968Z,3.00
2023-04-21T18:57:18.757Z,3.33
2023-04-21T18:59:45.725Z,2.55
2023-04-21T19:02:13.533Z,2.78
2023-04-21T19:04:40.685Z,2.53
2023-04-21T19:07:09.917Z,3.40
2023-04-21T19:09:37.257Z,3.22
2023-04-21T19:12:04.488Z,2.83
2023-04-21T19:14:42.529Z,2.90
2023-04-21T19:17:13.400Z,3.20
2023-04-21T19:19:40.638Z,2.70
2023-04-21T19:22:07.433Z,2.60
2023-04-21T19:24:34.282Z,3.13
2023-04-21T19:27:05.964Z,2.35
2023-04-21T19:29:33.115Z,2.67
2023-04-21T19:31:59.841Z,2.65
2023-04-21T19:34:26.906Z,2.63
2023-04-21T19:36:53.746Z,2.20
2023-04-21T19:39:20.562Z,2.38
2023-04-21T19:41:47.297Z,2.28
2023-04-21T19:44:13.997Z,1.92
2023-04-21T19:46:42.849Z,2.83
2023-04-21T19:49:13.008Z,2.45
2023-04-21T19:51:41.074Z,2.63
2023-04-21T19:54:11.447Z,2.38
2023-04-21T19:56:39.710Z,2.42
2023-04-21T19:59:06.604Z,2.08
2023-04-21T20:01:34.312Z,2.50
2023-04-21T20:04:01.577Z,2.33
2023-04-21T20:06:28.725Z,2.05
2023-04-21T20:08:55.857Z,2.00
2023-04-21T20:11:23.139Z,1.85
2023-04-21T20:13:50.205Z,2.60
2023-04-21T20:16:20.138Z,1.83
2023-04-21T20:18:47.307Z,1.95
2023-04-21T20:21:14.139Z,2.10
2023-04-21T20:23:40.932Z,1.55
2023-04-21T20:26:07.669Z,1.50
2023-04-21T20:28:34.396Z,2.15
2023-04-21T20:31:01.219Z,2.08
2023-04-21T20:33:28.273Z,1.80
2023-04-21T20:35:55.536Z,2.30
2023-04-21T20:38:23.982Z,2.45
2023-04-21T20:40:52.345Z,2.03
2023-04-21T20:43:19.388Z,1.80
2023-04-21T20:45:47.412Z,1.98
2023-04-21T20:48:14.170Z,1.67
2023-04-21T20:50:41.357Z,2.05
2023-04-21T20:53:09.552Z,1.58
2023-04-21T20:55:36.446Z,2.15
2023-04-21T20:58:04.627Z,2.15
2023-04-21T21:00:34.761Z,1.83
2023-04-21T21:03:01.995Z,1.60
2023-04-21T21:05:30.343Z,1.80
2023-04-21T21:07:57.340Z,2.28
2023-04-21T21:10:24.112Z,1.70
2023-04-21T21:12:50.944Z,2.15
2023-04-21T21:15:17.677Z,2.25
2023-04-21T21:17:44.612Z,1.60
2023-04-21T21:20:11.624Z,1.77
2023-04-21T21:22:38.413Z,2.35
2023-04-21T21:25:05.985Z,2.05
2023-04-21T21:27:32.731Z,2.08
2023-04-21T21:29:59.467Z,1.95
2023-04-21T21:32:26.274Z,2.38
2023-04-21T21:34:53.054Z,1.95
2023-04-21T21:37:19.888Z,1.85
2023-04-21T21:39:46.912Z,1.75
2023-04-21T21:42:13.559Z,1.77
2023-04-21T21:44:40.270Z,1.70
2023-04-21T21:47:07.388Z,1.58
2023-04-21T21:49:34.132Z,1.55
2023-04-21T21:52:02.065Z,1.73
2023-04-21T21:54:28.718Z,1.65
2023-04-21T21:56:56.253Z,1.75
2023-04-21T21:59:23.169Z,1.73
2023-04-21T22:01:51.221Z,1.52
2023-04-21T22:04:17.970Z,1.50
2023-04-21T22:06:48.258Z,2.05
2023-04-21T22:09:15.501Z,2.20
2023-04-21T22:11:42.315Z,1.85
2023-04-21T22:14:21.774Z,2.30
2023-04-21T22:16:50.596Z,1.60
2023-04-21T22:19:19.103Z,1.83
2023-04-21T22:21:46.098Z,2.05
2023-04-21T22:24:13.122Z,1.98
2023-04-21T22:26:39.940Z,2.17
2023-04-21T22:29:07.040Z,2.00
2023-04-21T22:31:33.959Z,2.58
2023-04-21T22:34:01.014Z,1.58
2023-04-21T22:36:27.873Z,1.92
2023-04-21T22:38:54.620Z,2.17
2023-04-21T22:41:21.382Z,2.10
2023-04-21T22:43:48.188Z,2.35
2023-04-21T22:46:15.186Z,2.30
2023-04-21T22:48:42.089Z,2.25
2023-04-21T22:51:08.787Z,1.58
2023-04-21T22:53:35.607Z,1.75
2023-04-21T22:56:02.467Z,1.90
2023-04-21T22:58:29.286Z,1.73
2023-04-21T23:00:56.163Z,1.70
2023-04-21T23:03:23.886Z,2.50
2023-04-21T23:05:50.832Z,1.77
2023-04-21T23:08:17.536Z,1.75
2023-04-21T23:10:44.188Z,1.85
2023-04-21T23:13:11.021Z,1.75
2023-04-21T23:15:37.766Z,1.70
2023-04-21T23:18:04.845Z,1.90
2023-04-21T23:20:31.749Z,1.63
2023-04-21T23:22:58.611Z,1.48
2023-04-21T23:25:25.480Z,1.52
2023-04-21T23:27:52.195Z,1.58
2023-04-21T23:30:19.001Z,1.90
2023-04-21T23:32:46.496Z,1.92
2023-04-21T23:35:13.330Z,1.88
2023-04-21T23:37:40.442Z,1.70
2023-04-21T23:40:11.051Z,1.83
2023-04-21T23:42:38.691Z,1.63
2023-04-21T23:45:06.651Z,1.42
2023-04-21T23:47:33.823Z,2.08
2023-04-21T23:50:00.756Z,1.77
2023-04-21T23:52:27.575Z,1.50
2023-04-21T23:54:54.332Z,2.28
2023-04-21T23:57:21.183Z,2.20
2023-04-21T23:59:48.019Z,1.77
